METAR Data
IDs: Format: Raw Decoded Include TAF

Data at: 1909 UTC 23 Jan 2019

KVLD 231853Z 18015G23KT 10SM BKN055 BKN075 23/12 A3007 RMK AO2 SLP188 T02280122